createdAt,value
2022-11-15T00:02:14.179Z,41.20
2022-11-15T00:05:02.570Z,38.90
2022-11-15T00:07:56.023Z,40.97
2022-11-15T00:10:47.710Z,38.03
2022-11-15T00:13:35.754Z,40.00
2022-11-15T00:16:25.552Z,42.53
2022-11-15T00:19:14.882Z,40.97
2022-11-15T00:22:05.218Z,42.43
2022-11-15T00:24:52.363Z,41.37
2022-11-15T00:27:39.828Z,40.23
2022-11-15T00:30:30.819Z,40.80
2022-11-15T00:33:19.693Z,40.50
2022-11-15T00:36:12.900Z,41.47
2022-11-15T00:39:00.995Z,40.17
2022-11-15T00:41:48.462Z,37.83
2022-11-15T00:44:36.847Z,38.83
2022-11-15T00:47:27.683Z,37.10
2022-11-15T00:50:16.689Z,36.10
2022-11-15T00:53:05.762Z,36.30
2022-11-15T00:55:56.262Z,37.03
2022-11-15T00:58:47.720Z,35.77
2022-11-15T01:01:35.660Z,38.23
2022-11-15T01:04:25.602Z,36.47
2022-11-15T01:07:12.799Z,36.27
2022-11-15T01:10:01.517Z,35.17
2022-11-15T01:12:48.498Z,35.80
2022-11-15T01:15:35.235Z,37.50
2022-11-15T01:18:26.721Z,35.90
2022-11-15T01:21:18.285Z,36.97
2022-11-15T01:24:20.686Z,37.70
2022-11-15T01:27:11.239Z,36.63
2022-11-15T01:30:00.861Z,34.50
2022-11-15T01:32:48.236Z,35.73
2022-11-15T01:35:41.477Z,35.33
2022-11-15T01:38:30.596Z,32.80
2022-11-15T01:41:20.506Z,33.53
2022-11-15T01:44:35.035Z,34.17
2022-11-15T01:47:31.207Z,33.33
2022-11-15T01:50:23.139Z,34.33
2022-11-15T01:53:13.029Z,34.00
2022-11-15T01:56:05.612Z,33.50
2022-11-15T01:58:56.553Z,34.37
2022-11-15T02:04:52.780Z,34.70
2022-11-15T02:07:43.416Z,34.40
2022-11-15T02:10:32.110Z,34.80
2022-11-15T02:13:22.173Z,36.23
2022-11-15T02:16:46.758Z,34.23
2022-11-15T02:19:44.805Z,33.50
2022-11-15T02:26:50.050Z,35.07
2022-11-15T02:30:17.105Z,33.50
2022-11-15T02:33:24.598Z,33.40
2022-11-15T02:36:36.537Z,32.97
2022-11-15T02:40:00.333Z,31.13
2022-11-15T02:43:17.880Z,30.80
2022-11-15T02:46:14.051Z,31.13
2022-11-15T02:49:04.691Z,30.47
2022-11-15T02:51:53.960Z,30.93
2022-11-15T02:54:44.731Z,31.63
2022-11-15T02:58:08.463Z,32.50
2022-11-15T03:01:32.328Z,33.13
2022-11-15T03:04:45.121Z,34.93
2022-11-15T03:08:18.974Z,34.80
2022-11-15T03:11:14.401Z,34.83
2022-11-15T03:14:26.673Z,36.40
2022-11-15T03:17:23.231Z,35.27
2022-11-15T03:20:16.194Z,35.47
2022-11-15T03:23:08.143Z,34.73
2022-11-15T03:25:57.363Z,34.27
2022-11-15T03:29:00.633Z,34.87
2022-11-15T03:31:56.666Z,35.37
2022-11-15T03:35:12.784Z,32.37
2022-11-15T03:38:12.437Z,32.80
2022-11-15T03:41:26.651Z,33.20
2022-11-15T03:44:21.214Z,32.77
2022-11-15T03:47:17.651Z,32.17
2022-11-15T03:50:13.779Z,32.23
2022-11-15T03:53:01.774Z,32.17
2022-11-15T03:55:52.382Z,32.80
2022-11-15T03:58:41.731Z,33.10
2022-11-15T04:01:30.983Z,33.20
2022-11-15T04:04:20.562Z,31.27
2022-11-15T04:10:15.336Z,30.50
2022-11-15T04:13:04.241Z,32.07
2022-11-15T04:15:52.514Z,32.37
2022-11-15T04:18:41.824Z,30.10
2022-11-15T04:21:48.862Z,31.57
2022-11-15T04:24:36.991Z,31.97
2022-11-15T04:27:24.177Z,31.43
2022-11-15T04:30:15.111Z,32.27
2022-11-15T04:33:04.811Z,30.57
2022-11-15T04:36:13.718Z,31.73
2022-11-15T04:39:01.201Z,31.63
2022-11-15T04:44:52.160Z,30.43
2022-11-15T04:47:40.477Z,31.30
2022-11-15T04:50:28.185Z,33.07
2022-11-15T04:53:16.753Z,30.17
2022-11-15T04:56:14.572Z,29.97
2022-11-15T04:59:02.591Z,31.20
2022-11-15T05:01:51.205Z,29.33
2022-11-15T05:04:40.158Z,30.60
2022-11-15T05:07:27.280Z,29.17
2022-11-15T05:10:16.286Z,30.00
2022-11-15T05:13:03.245Z,31.17
2022-11-15T05:15:52.239Z,32.43
2022-11-15T05:18:42.208Z,32.57
2022-11-15T05:21:31.496Z,32.07
2022-11-15T05:24:19.147Z,30.60
2022-11-15T05:30:13.840Z,30.73
2022-11-15T05:33:02.565Z,31.50
2022-11-15T05:36:10.705Z,30.33
2022-11-15T05:38:59.087Z,27.90
2022-11-15T05:41:51.715Z,30.33
2022-11-15T05:44:48.436Z,30.70
2022-11-15T05:47:39.793Z,30.57
2022-11-15T05:50:28.431Z,27.60
2022-11-15T05:53:19.835Z,29.03
2022-11-15T05:56:07.783Z,32.03
2022-11-15T05:58:59.950Z,33.47
2022-11-15T06:01:51.166Z,29.57
2022-11-15T06:04:40.314Z,30.07
2022-11-15T06:07:32.447Z,30.37
2022-11-15T06:10:20.350Z,32.17
2022-11-15T06:13:10.229Z,31.53
2022-11-15T06:15:57.768Z,31.07
2022-11-15T06:18:48.097Z,31.87
2022-11-15T06:21:34.839Z,32.87
2022-11-15T06:24:29.223Z,33.50
2022-11-15T06:27:17.655Z,34.33
2022-11-15T06:30:06.295Z,36.23
2022-11-15T06:33:16.276Z,32.13
2022-11-15T06:36:07.310Z,34.90
2022-11-15T06:38:53.164Z,32.57
2022-11-15T06:41:41.551Z,32.43
2022-11-15T06:44:28.195Z,32.77
2022-11-15T06:47:16.589Z,33.67
2022-11-15T06:50:06.424Z,34.07
2022-11-15T06:52:58.914Z,32.03
2022-11-15T06:55:50.824Z,31.70
2022-11-15T06:58:41.648Z,32.30
2022-11-15T07:01:29.330Z,32.43
2022-11-15T07:04:17.138Z,32.20
2022-11-15T07:07:06.662Z,34.40
2022-11-15T07:09:55.476Z,32.57
2022-11-15T07:12:45.948Z,30.30
2022-11-15T07:15:36.732Z,29.97
2022-11-15T07:18:26.278Z,32.03
2022-11-15T07:21:17.805Z,31.37
2022-11-15T07:24:06.974Z,29.97
2022-11-15T07:26:55.608Z,30.03
2022-11-15T07:29:43.216Z,30.27
2022-11-15T07:32:31.890Z,30.63
2022-11-15T07:35:19.180Z,29.73
2022-11-15T07:38:09.291Z,30.60
2022-11-15T07:41:03.053Z,30.97
2022-11-15T07:43:53.625Z,29.13
2022-11-15T07:46:41.196Z,29.73
2022-11-15T07:49:28.647Z,28.63
2022-11-15T07:52:16.834Z,28.50
2022-11-15T07:55:05.608Z,29.00
2022-11-15T07:57:53.182Z,28.27
2022-11-15T08:00:41.163Z,28.87
2022-11-15T08:03:28.162Z,29.03
2022-11-15T08:06:18.525Z,31.13
2022-11-15T08:09:06.652Z,29.27
2022-11-15T08:11:57.359Z,29.53
2022-11-15T08:14:46.472Z,29.80
2022-11-15T08:17:37.564Z,27.93
2022-11-15T08:20:26.590Z,27.70
2022-11-15T08:23:14.160Z,27.70
2022-11-15T08:26:05.919Z,26.77
2022-11-15T08:28:54.031Z,26.57
2022-11-15T08:31:44.139Z,26.70
2022-11-15T08:34:30.773Z,26.53
2022-11-15T08:37:27.363Z,25.57
2022-11-15T08:43:16.229Z,25.67
2022-11-15T08:46:07.289Z,25.40
2022-11-15T08:48:57.881Z,26.27
2022-11-15T08:51:46.176Z,26.23
2022-11-15T08:54:33.189Z,24.67
2022-11-15T09:00:24.742Z,26.57
2022-11-15T09:03:14.319Z,25.53
2022-11-15T09:06:04.349Z,27.63
2022-11-15T09:08:55.116Z,25.73
2022-11-15T09:11:43.400Z,25.27
2022-11-15T09:14:31.588Z,26.83
2022-11-15T09:17:24.213Z,26.70
2022-11-15T09:20:14.688Z,25.63
2022-11-15T09:23:10.728Z,28.10
2022-11-15T09:26:06.191Z,28.33
2022-11-15T09:28:54.249Z,28.37
2022-11-15T09:31:41.146Z,27.50
2022-11-15T09:34:28.140Z,30.10
2022-11-15T09:37:17.157Z,29.43
2022-11-15T09:40:20.395Z,29.00
2022-11-15T09:43:27.151Z,29.87
2022-11-15T09:46:27.284Z,29.00
2022-11-15T09:49:18.202Z,30.13
2022-11-15T09:52:13.252Z,29.33
2022-11-15T09:54:55.065Z,30.30
2022-11-15T09:57:59.738Z,31.40
2022-11-15T10:00:50.037Z,29.37
2022-11-15T10:03:38.039Z,29.67
2022-11-15T10:06:07.446Z,28.83
2022-11-15T10:08:44.769Z,29.33
2022-11-15T10:11:39.604Z,28.10
2022-11-15T10:14:22.784Z,27.70
2022-11-15T10:17:13.791Z,29.70
2022-11-15T10:20:10.795Z,30.77
2022-11-15T10:23:02.846Z,31.27
2022-11-15T10:25:33.973Z,31.00
2022-11-15T10:28:27.695Z,30.97
2022-11-15T10:31:02.245Z,29.63
2022-11-15T10:33:41.480Z,30.40
2022-11-15T10:36:22.413Z,29.80
2022-11-15T10:38:56.131Z,29.97
2022-11-15T10:41:35.730Z,32.40
2022-11-15T10:44:27.433Z,30.13
2022-11-15T10:47:07.461Z,30.10
2022-11-15T10:49:40.058Z,30.77
2022-11-15T10:52:23.185Z,32.30
2022-11-15T10:55:17.876Z,33.90
2022-11-15T10:57:57.824Z,34.07
2022-11-15T11:00:38.886Z,32.20
2022-11-15T11:03:42.496Z,29.10
2022-11-15T11:06:23.006Z,29.03
2022-11-15T11:09:03.993Z,28.70
2022-11-15T11:11:53.705Z,28.50
2022-11-15T11:14:32.842Z,29.80
2022-11-15T11:17:46.738Z,26.43
2022-11-15T11:20:32.637Z,25.83
2022-11-15T11:23:39.676Z,26.37
2022-11-15T11:26:34.409Z,26.77
2022-11-15T11:29:28.658Z,28.60
2022-11-15T11:32:20.311Z,28.83
2022-11-15T11:35:11.370Z,28.77
2022-11-15T11:37:54.061Z,30.07
2022-11-15T11:41:07.202Z,28.73
2022-11-15T11:44:14.992Z,29.93
2022-11-15T11:47:11.256Z,31.17
2022-11-15T11:49:52.238Z,30.27
2022-11-15T11:52:37.844Z,32.87
2022-11-15T11:55:23.102Z,35.43
2022-11-15T11:58:28.114Z,37.73
2022-11-15T12:01:13.449Z,35.90
2022-11-15T12:03:59.640Z,35.03
2022-11-15T12:07:04.669Z,35.63
2022-11-15T12:09:50.284Z,34.07
2022-11-15T12:12:37.602Z,34.50
2022-11-15T12:18:29.832Z,34.80
2022-11-15T12:21:28.244Z,33.73
2022-11-15T12:24:05.404Z,35.13
2022-11-15T12:26:59.180Z,34.83
2022-11-15T12:29:45.251Z,35.17
2022-11-15T12:32:38.722Z,34.23
2022-11-15T12:35:42.025Z,33.43
2022-11-15T12:38:36.747Z,33.57
2022-11-15T12:41:21.990Z,34.13
2022-11-15T12:43:51.158Z,33.23
2022-11-15T12:46:34.208Z,34.33
2022-11-15T12:49:30.456Z,33.50
2022-11-15T12:52:02.021Z,32.83
2022-11-15T12:54:57.586Z,33.50
2022-11-15T12:57:43.209Z,33.80
2022-11-15T13:00:25.470Z,35.87
2022-11-15T13:03:19.205Z,35.47
2022-11-15T13:05:56.758Z,32.73
2022-11-15T13:08:54.402Z,32.57
2022-11-15T13:11:58.516Z,34.27
2022-11-15T13:14:46.833Z,34.27
2022-11-15T13:17:30.731Z,34.80
2022-11-15T13:20:07.018Z,34.30
2022-11-15T13:22:51.992Z,34.10
2022-11-15T13:25:58.171Z,36.67
2022-11-15T13:28:35.675Z,36.00
2022-11-15T13:31:29.299Z,37.00
2022-11-15T13:34:22.916Z,36.43
2022-11-15T13:36:57.023Z,35.70
2022-11-15T13:39:39.873Z,35.37
2022-11-15T13:42:19.481Z,35.33
2022-11-15T13:45:03.705Z,35.10
2022-11-15T13:47:33.304Z,34.37
2022-11-15T13:50:07.045Z,36.10
2022-11-15T13:52:43.619Z,35.17
2022-11-15T13:55:22.507Z,33.80
2022-11-15T13:57:54.900Z,34.97
2022-11-15T14:00:41.716Z,33.60
2022-11-15T14:03:18.355Z,33.03
2022-11-15T14:06:16.462Z,37.00
2022-11-15T14:09:03.889Z,36.13
2022-11-15T14:11:32.486Z,33.97
2022-11-15T14:14:16.960Z,35.17
2022-11-15T14:16:51.551Z,35.70
2022-11-15T14:19:22.135Z,33.17
2022-11-15T14:22:22.038Z,33.37
2022-11-15T14:25:25.303Z,34.37
2022-11-15T14:28:25.614Z,33.40
2022-11-15T14:30:56.521Z,34.50
2022-11-15T14:33:33.546Z,35.70
2022-11-15T14:36:23.808Z,34.43
2022-11-15T14:38:57.596Z,35.63
2022-11-15T14:41:28.994Z,34.77
2022-11-15T14:46:41.711Z,34.50
2022-11-15T14:51:57.025Z,34.90
2022-11-15T14:54:27.185Z,35.10
2022-11-15T14:56:57.717Z,33.43
2022-11-15T15:02:20.229Z,34.53
2022-11-15T15:04:50.256Z,34.30
2022-11-15T15:07:19.691Z,35.50
2022-11-15T15:09:49.513Z,34.57
2022-11-15T15:12:31.953Z,35.17
2022-11-15T15:15:03.121Z,35.13
2022-11-15T15:17:33.479Z,35.63
2022-11-15T15:20:01.144Z,34.97
2022-11-15T15:22:31.213Z,36.23
2022-11-15T15:25:03.553Z,36.73
2022-11-15T15:27:32.027Z,37.20
2022-11-15T15:30:11.473Z,36.73
2022-11-15T15:35:24.610Z,37.77
2022-11-15T15:37:53.206Z,38.40
2022-11-15T15:40:23.365Z,39.73
2022-11-15T15:42:54.085Z,41.83
2022-11-15T15:45:44.769Z,40.03
2022-11-15T15:48:16.622Z,40.00
2022-11-15T15:50:46.777Z,40.47
2022-11-15T15:53:15.321Z,41.47
2022-11-15T15:55:47.006Z,44.17
2022-11-15T15:58:15.451Z,47.30
2022-11-15T16:00:43.884Z,47.13
2022-11-15T16:03:15.782Z,46.90
2022-11-15T16:08:42.537Z,45.47
2022-11-15T16:11:16.757Z,41.97
2022-11-15T16:13:46.426Z,42.37
2022-11-15T16:16:17.265Z,42.93
2022-11-15T16:18:48.748Z,41.60
2022-11-15T16:21:17.239Z,42.27
2022-11-15T16:23:48.837Z,42.00
2022-11-15T16:26:32.413Z,44.57
2022-11-15T16:29:00.160Z,43.27
2022-11-15T16:31:30.892Z,42.77
2022-11-15T16:33:59.322Z,44.17
2022-11-15T16:36:33.580Z,43.37
2022-11-15T16:39:05.371Z,42.57
2022-11-15T16:41:35.631Z,41.33
2022-11-15T16:44:04.679Z,40.40
2022-11-15T16:46:33.334Z,37.83
2022-11-15T16:49:02.504Z,38.13
2022-11-15T16:51:30.753Z,35.53
2022-11-15T16:54:03.548Z,35.63
2022-11-15T16:56:31.720Z,37.07
2022-11-15T16:59:01.978Z,36.03
2022-11-15T17:01:35.579Z,35.47
2022-11-15T17:04:13.469Z,35.80
2022-11-15T17:06:43.845Z,36.40
2022-11-15T17:09:31.853Z,36.57
2022-11-15T17:12:02.678Z,36.23
2022-11-15T17:14:30.660Z,35.30
2022-11-15T17:16:59.238Z,36.80
2022-11-15T17:19:29.599Z,34.00
2022-11-15T17:22:00.344Z,33.23
2022-11-15T17:24:31.708Z,31.97
2022-11-15T17:27:03.548Z,34.87
2022-11-15T17:29:33.071Z,34.03
2022-11-15T17:32:04.174Z,33.17
2022-11-15T17:34:32.321Z,34.00
2022-11-15T17:37:01.276Z,33.90
2022-11-15T17:39:31.443Z,31.87
2022-11-15T17:44:46.181Z,32.37
2022-11-15T17:47:16.896Z,32.67
2022-11-15T17:52:30.908Z,31.33
2022-11-15T17:55:07.764Z,32.10
2022-11-15T17:57:38.971Z,31.93
2022-11-15T18:00:09.884Z,32.13
2022-11-15T18:02:41.331Z,31.67
2022-11-15T18:05:13.671Z,31.03
2022-11-15T18:07:52.471Z,31.40
2022-11-15T18:10:22.804Z,32.33
2022-11-15T18:12:54.230Z,32.37
2022-11-15T18:15:24.888Z,30.57
2022-11-15T18:18:00.955Z,29.73
2022-11-15T18:20:31.779Z,29.10
2022-11-15T18:23:03.005Z,26.77
2022-11-15T18:25:30.757Z,28.57
2022-11-15T18:28:01.140Z,27.40
2022-11-15T18:30:32.031Z,27.07
2022-11-15T18:33:01.535Z,26.53
2022-11-15T18:35:41.924Z,26.30
2022-11-15T18:38:14.543Z,25.97
2022-11-15T18:40:47.818Z,26.27
2022-11-15T18:43:29.100Z,26.30
2022-11-15T18:46:19.615Z,25.57
2022-11-15T18:48:53.555Z,25.07
2022-11-15T18:54:10.810Z,27.40
2022-11-15T18:56:47.267Z,28.00
2022-11-15T18:59:16.067Z,27.30
2022-11-15T19:01:50.608Z,28.60
2022-11-15T19:04:31.478Z,27.73
2022-11-15T19:07:03.591Z,28.60
2022-11-15T19:09:39.066Z,28.87
2022-11-15T19:12:13.259Z,29.07
2022-11-15T19:14:46.922Z,28.40
2022-11-15T19:17:16.940Z,27.67
2022-11-15T19:19:58.227Z,27.13
2022-11-15T19:22:29.911Z,26.07
2022-11-15T19:24:58.948Z,26.23
2022-11-15T19:27:38.378Z,25.37
2022-11-15T19:30:15.848Z,24.53
2022-11-15T19:32:58.589Z,25.20
2022-11-15T19:35:31.311Z,26.33
2022-11-15T19:38:13.912Z,25.07
2022-11-15T19:40:46.219Z,24.80
2022-11-15T19:43:20.104Z,24.03
2022-11-15T19:45:56.917Z,24.50
2022-11-15T19:48:38.258Z,25.67
2022-11-15T19:51:18.305Z,25.93
2022-11-15T19:53:57.859Z,25.03
2022-11-15T19:56:32.706Z,24.30
2022-11-15T19:59:06.085Z,25.50
2022-11-15T20:04:34.004Z,24.53
2022-11-15T20:07:15.534Z,23.53
2022-11-15T20:09:47.937Z,23.87
2022-11-15T20:12:20.908Z,24.17
2022-11-15T20:14:56.320Z,23.83
2022-11-15T20:17:28.810Z,23.90
2022-11-15T20:20:01.027Z,22.43
2022-11-15T20:22:39.135Z,23.87
2022-11-15T20:25:09.954Z,23.63
2022-11-15T20:27:44.986Z,21.97
2022-11-15T20:30:21.849Z,23.47
2022-11-15T20:32:53.003Z,23.13
2022-11-15T20:35:31.393Z,23.37
2022-11-15T20:38:08.564Z,22.60
2022-11-15T20:43:25.006Z,20.47
2022-11-15T20:45:57.705Z,22.43
2022-11-15T20:48:32.785Z,21.00
2022-11-15T20:51:12.752Z,21.03
2022-11-15T20:53:47.744Z,20.23
2022-11-15T20:56:21.243Z,21.33
2022-11-15T20:58:55.678Z,21.73
2022-11-15T21:01:36.658Z,22.30
2022-11-15T21:04:09.465Z,23.23
2022-11-15T21:06:47.717Z,25.03
2022-11-15T21:09:40.234Z,24.03
2022-11-15T21:12:17.884Z,23.33
2022-11-15T21:14:49.636Z,26.33
2022-11-15T21:17:26.660Z,25.37
2022-11-15T21:19:57.236Z,26.17
2022-11-15T21:22:36.773Z,26.87
2022-11-15T21:27:51.743Z,26.27
2022-11-15T21:30:20.350Z,26.70
2022-11-15T21:32:48.923Z,26.70
2022-11-15T21:35:20.874Z,26.77
2022-11-15T21:37:56.379Z,26.63
2022-11-15T21:40:36.484Z,26.53
2022-11-15T21:43:06.164Z,26.80
2022-11-15T21:45:44.094Z,27.40
2022-11-15T21:48:14.967Z,26.93
2022-11-15T21:50:47.482Z,26.83
2022-11-15T21:53:21.769Z,27.20
2022-11-15T21:55:53.058Z,26.33
2022-11-15T21:58:25.028Z,26.57
2022-11-15T22:01:18.282Z,26.93
2022-11-15T22:09:21.245Z,27.90
2022-11-15T22:14:37.758Z,28.33
2022-11-15T22:17:09.687Z,28.10
2022-11-15T22:19:52.600Z,27.60
2022-11-15T22:25:08.654Z,27.23
2022-11-15T22:27:42.665Z,27.67
2022-11-15T22:30:19.898Z,27.00
2022-11-15T22:32:55.235Z,26.20
2022-11-15T22:35:32.058Z,25.50
2022-11-15T22:38:02.077Z,25.27
2022-11-15T22:40:33.144Z,26.63
2022-11-15T22:46:02.818Z,26.20
2022-11-15T22:48:37.023Z,24.43
2022-11-15T22:53:55.485Z,25.33
2022-11-15T22:56:27.423Z,24.80
2022-11-15T22:59:03.137Z,23.33
2022-11-15T23:01:33.828Z,22.77
2022-11-15T23:04:12.408Z,23.23
2022-11-15T23:06:49.513Z,22.23
2022-11-15T23:09:20.400Z,22.63
2022-11-15T23:12:11.590Z,22.37
2022-11-15T23:14:44.098Z,22.40
2022-11-15T23:17:12.158Z,22.40
2022-11-15T23:19:48.107Z,22.03
2022-11-15T23:22:37.848Z,22.17
2022-11-15T23:27:51.731Z,21.07
2022-11-15T23:30:41.995Z,21.90
2022-11-15T23:33:42.968Z,22.83
2022-11-15T23:36:15.385Z,21.47
2022-11-15T23:38:45.655Z,21.83
2022-11-15T23:41:15.373Z,22.33
2022-11-15T23:46:29.818Z,21.10
2022-11-15T23:49:00.891Z,21.07
2022-11-15T23:51:37.529Z,22.07
2022-11-15T23:54:13.414Z,20.87
2022-11-15T23:56:43.520Z,21.83
